Strona główna
METAR-TAF:

METAR-TAF

Lotnisko :

Orange Municipal Airport

Orange, Massachusetts, Stany Zjednoczone

Szerokość geograficzna: 42-34-18N, Długość geograficzna: 072-16-39W, wysokość: 169 m

Aktualna obserwacja pogody

Raport powstał 12 minut temu, godzina 08:52 UTC
Cisza
Temperatura 17°C
Wilgotność 82%
Ciśnienie 1022 hPa
Widzialność: 16.1 km
Zachmurzenie całkowite na wysokości 1300 ft

METAR: KORE 200852Z AUTO 00000KT 10SM OVC013 17/14 A3017 RMK AO2 SLP214 T01720144 53004

czas: 05:04 (09:04 UTC)


TAF: brakujący

Obserwacja i prognoza pogody dla ponad 4000 lotnisk (raport METAR i TAF).

Dostępne stacje oznaczono żółtymi i czerwonymi punktami na mapie.

Najedź kursorem aby zobaczyć nazwę stacji.

Kliknij aby zobaczyć obserwacje i prognozy pogody.

Aby zmienić mapę: kliknij na zielony przycisk z czarnym krzyżykiem, aby powiększyć; na zielony przycisk z myślnikiem, aby pomniejszyć; na zielone strzałki, aby przejść do map sąsiednich.


METAR-TAF: